Time;durP1;ratioP1;P1;durP2;ratioP2;P2;SDS_P1;SDS_P2;PMS_P1;PMS_P2;Temp;Humidity;BMP_temperature;BMP_pressure;BME280_temperature;BME280_humidity;BME280_pressure;Samples;Min_cycle;Max_cycle;Signal;HPM_P1;HPM_P2
2023/06/12 00:00:52;;;;;;;6.10;4.82;;;;;16.10;94077.00;;;;7394463;19;20534;-74
2023/06/12 00:03:26;;;;;;;6.50;4.82;;;;;16.00;94058.00;;;;7395760;19;20673;-71
2023/06/12 00:06:02;;;;;;;5.80;4.78;;;;;15.80;94071.00;;;;7392418;19;20164;-73
2023/06/12 00:08:41;;;;;;;5.40;4.90;;;;;15.70;94066.00;;;;7393232;19;20593;-74
2023/06/12 00:11:16;;;;;;;7.70;4.57;;;;;15.80;94065.00;;;;7395025;19;20183;-75
2023/06/12 00:13:46;;;;;;;6.97;4.80;;;;;15.90;94069.00;;;;7392869;19;20613;-73
2023/06/12 00:16:21;;;;;;;7.13;4.30;;;;;15.80;94068.00;;;;7395129;19;20202;-74
2023/06/12 00:18:49;;;;;;;5.38;4.82;;;;;15.80;94067.00;;;;7395786;19;20166;-74
2023/06/12 00:21:23;;;;;;;5.82;4.60;;;;;15.70;94071.00;;;;7396444;19;20426;-74
2023/06/12 00:23:51;;;;;;;5.05;4.40;;;;;15.60;94068.00;;;;7392618;19;20213;-74
2023/06/12 00:26:32;;;;;;;6.82;4.82;;;;;15.50;94072.00;;;;7394055;19;20144;-74
2023/06/12 00:29:06;;;;;;;7.78;4.82;;;;;15.50;94071.00;;;;7394534;19;20835;-75
2023/06/12 00:31:40;;;;;;;5.07;4.45;;;;;15.60;94065.00;;;;7395216;19;20232;-73
2023/06/12 00:34:08;;;;;;;5.13;4.63;;;;;15.50;94068.00;;;;7393520;19;20140;-74
2023/06/12 00:36:42;;;;;;;5.90;4.65;;;;;15.50;94069.00;;;;7395657;19;20140;-74
2023/06/12 00:39:10;;;;;;;5.00;4.50;;;;;15.40;94067.00;;;;7393890;19;20144;-74
2023/06/12 00:41:44;;;;;;;4.78;4.22;;;;;15.40;94063.00;;;;7393045;19;20616;-74
2023/06/12 00:44:18;;;;;;;4.95;4.45;;;;;15.30;94069.00;;;;7395041;19;20163;-75
2023/06/12 00:46:46;;;;;;;4.90;4.40;;;;;15.30;94066.00;;;;7396773;19;20649;-74
2023/06/12 00:49:22;;;;;;;6.53;4.60;;;;;15.30;94067.00;;;;7401824;19;20153;-74
2023/06/12 00:51:50;;;;;;;5.13;4.43;;;;;15.20;94070.00;;;;7399826;19;20538;-74
2023/06/12 00:54:25;;;;;;;5.05;4.65;;;;;15.10;94064.00;;;;7401385;19;20495;-73
2023/06/12 00:56:59;;;;;;;6.88;4.57;;;;;15.10;94060.00;;;;7402505;19;20632;-74
2023/06/12 00:59:27;;;;;;;6.85;4.85;;;;;15.00;94059.00;;;;7400662;19;20185;-73
2023/06/12 01:02:09;;;;;;;5.70;4.60;;;;;14.90;94063.00;;;;7397431;19;20191;-87
2023/06/12 01:04:37;;;;;;;5.13;4.63;;;;;14.80;94056.00;;;;7406665;19;20150;-88
2023/06/12 01:07:23;;;;;;;5.72;4.10;;;;;14.80;94063.00;;;;7406713;19;20153;-88
2023/06/12 01:10:00;;;;;;;5.75;5.07;;;;;14.80;94061.00;;;;7407988;19;20132;-88
2023/06/12 01:12:36;;;;;;;5.05;4.55;;;;;14.80;94064.00;;;;7406437;19;20158;-88
2023/06/12 01:15:10;;;;;;;7.45;4.63;;;;;14.70;94057.00;;;;7406811;19;20136;-89
2023/06/12 01:17:44;;;;;;;6.38;4.63;;;;;14.50;94053.00;;;;7407697;19;20145;-89
2023/06/12 01:20:18;;;;;;;6.50;5.00;;;;;14.40;94052.00;;;;7409808;19;20761;-87
2023/06/12 01:23:13;;;;;;;4.50;4.10;;;;;14.40;94059.00;;;;7408874;19;20149;-87
2023/06/12 01:26:08;;;;;;;7.65;5.50;;;;;14.30;94066.00;;;;7410508;19;20148;-88
2023/06/12 01:28:43;;;;;;;5.10;4.60;;;;;14.30;94062.00;;;;7411294;19;20132;-89
2023/06/12 01:31:16;;;;;;;4.90;4.40;;;;;14.30;94062.00;;;;7408428;19;20141;-88
2023/06/12 01:34:02;;;;;;;5.32;4.22;;;;;14.20;94058.00;;;;7408133;19;20145;-89
2023/06/12 01:36:34;;;;;;;4.80;4.30;;;;;14.30;94049.00;;;;7409941;19;20148;-87
2023/06/12 01:39:11;;;;;;;4.80;4.30;;;;;14.10;94051.00;;;;7409398;19;20596;-90
2023/06/12 01:41:46;;;;;;;8.55;4.88;;;;;14.10;94053.00;;;;7408958;19;20150;-87
2023/06/12 01:44:16;;;;;;;6.53;5.10;;;;;14.20;94048.00;;;;7407307;19;20159;-87
2023/06/12 01:46:50;;;;;;;5.03;4.53;;;;;14.20;94045.00;;;;7409116;19;20163;-88
2023/06/12 01:49:18;;;;;;;5.32;4.75;;;;;14.30;94047.00;;;;7408597;19;20551;-88
2023/06/12 01:51:52;;;;;;;5.20;4.70;;;;;14.20;94039.00;;;;7405806;19;20539;-87
2023/06/12 01:54:27;;;;;;;6.93;4.63;;;;;14.10;94047.00;;;;7407851;19;20159;-87
2023/06/12 01:56:55;;;;;;;5.70;4.88;;;;;14.00;94046.00;;;;7408370;19;20161;-87
2023/06/12 01:59:29;;;;;;;6.07;5.15;;;;;13.90;94050.00;;;;7408854;19;20132;-88
2023/06/12 02:01:58;;;;;;;8.23;5.03;;;;;13.90;94047.00;;;;7406061;19;20666;-88
2023/06/12 02:04:45;;;;;;;5.07;4.53;;;;;14.00;94036.00;;;;7407643;19;20613;-88
2023/06/12 02:07:13;;;;;;;7.22;4.70;;;;;13.80;94043.00;;;;7406876;19;20149;-87
2023/06/12 02:09:48;;;;;;;5.07;4.57;;;;;13.70;94046.00;;;;7407932;19;20145;-89
2023/06/12 02:12:16;;;;;;;5.30;4.50;;;;;13.60;94044.00;;;;7407090;19;20640;-88
2023/06/12 02:14:53;;;;;;;8.10;5.00;;;;;13.60;94044.00;;;;7407580;19;20490;-85
2023/06/12 02:17:20;;;;;;;4.90;4.40;;;;;13.60;94044.00;;;;7404252;19;20145;-87
2023/06/12 02:19:57;;;;;;;5.55;4.93;;;;;13.60;94042.00;;;;7406202;19;20176;-88
2023/06/12 02:22:25;;;;;;;5.82;5.13;;;;;13.70;94048.00;;;;7407664;19;20129;-86
2023/06/12 02:24:59;;;;;;;5.32;4.82;;;;;13.70;94046.00;;;;7405962;19;20153;-87
2023/06/12 02:27:35;;;;;;;5.72;4.80;;;;;13.50;94045.00;;;;7404968;19;20144;-88
2023/06/12 02:30:03;;;;;;;5.20;4.70;;;;;13.50;94043.00;;;;7407179;19;20140;-88
2023/06/12 02:32:39;;;;;;;5.82;4.70;;;;;13.40;94042.00;;;;7404912;19;20144;-88
2023/06/12 02:35:15;;;;;;;5.53;4.75;;;;;13.30;94049.00;;;;7405506;19;20144;-87
2023/06/12 02:37:52;;;;;;;7.47;4.47;;;;;13.30;94045.00;;;;7405919;19;20137;-87
2023/06/12 02:40:26;;;;;;;5.70;5.13;;;;;13.30;94043.00;;;;7406113;19;20141;-88
2023/06/12 02:42:53;;;;;;;7.88;4.90;;;;;13.40;94048.00;;;;7405716;19;20140;-87
2023/06/12 02:45:30;;;;;;;8.20;4.95;;;;;13.40;94042.00;;;;7406098;19;20153;-87
2023/06/12 02:48:07;;;;;;;5.20;4.60;;;;;13.40;94043.00;;;;7405075;19;20136;-87
2023/06/12 02:50:43;;;;;;;5.28;4.68;;;;;13.30;94047.00;;;;7407472;19;20133;-89
2023/06/12 02:53:19;;;;;;;5.78;5.10;;;;;13.40;94046.00;;;;7404556;19;20145;-88
2023/06/12 02:55:56;;;;;;;6.97;5.20;;;;;13.20;94052.00;;;;7405075;19;20615;-88
2023/06/12 02:58:39;;;;;;;6.05;5.05;;;;;13.50;94052.00;;;;7405902;19;20133;-88
2023/06/12 03:01:16;;;;;;;5.00;4.53;;;;;13.50;94051.00;;;;7405960;19;20166;-88
2023/06/12 03:03:58;;;;;;;8.77;5.38;;;;;13.40;94059.00;;;;7403092;19;20172;-88
2023/06/12 03:06:28;;;;;;;5.72;5.03;;;;;13.50;94037.00;;;;7403485;19;20140;-87
2023/06/12 03:09:17;;;;;;;7.70;5.13;;;;;13.90;94049.00;;;;7406329;19;20175;-88
2023/06/12 03:11:45;;;;;;;6.00;4.97;;;;;13.90;94053.00;;;;7403746;19;20133;-89
2023/06/12 03:14:21;;;;;;;5.47;4.90;;;;;13.90;94055.00;;;;7404056;19;20147;-88
2023/06/12 03:17:01;;;;;;;6.35;5.20;;;;;13.80;94050.00;;;;7400108;19;20145;-88
2023/06/12 03:19:29;;;;;;;6.80;5.05;;;;;13.90;94056.00;;;;7404506;19;20149;-87
2023/06/12 03:22:04;;;;;;;5.13;4.63;;;;;13.80;94050.00;;;;7403507;19;20136;-87
2023/06/12 03:24:32;;;;;;;5.55;4.63;;;;;13.80;94057.00;;;;7397978;19;20555;-87
2023/06/12 03:27:08;;;;;;;5.00;4.50;;;;;13.80;94060.00;;;;7400799;19;20672;-91
2023/06/12 03:29:36;;;;;;;5.95;5.32;;;;;14.00;94061.00;;;;7404470;19;20148;-89
2023/06/12 03:32:10;;;;;;;5.25;4.60;;;;;13.90;94003.00;;;;7404660;19;20212;-91
2023/06/12 03:34:38;;;;;;;7.70;5.32;;;;;13.90;94062.00;;;;7404923;19;20152;-89
2023/06/12 03:37:13;;;;;;;5.65;4.95;;;;;13.90;94070.00;;;;7405204;19;20218;-89
2023/06/12 03:39:47;;;;;;;5.88;5.07;;;;;13.90;94066.00;;;;7405247;19;20156;-89
2023/06/12 03:42:15;;;;;;;6.63;4.82;;;;;13.80;94071.00;;;;7404978;19;20613;-87
2023/06/12 03:44:49;;;;;;;5.20;4.20;;;;;13.60;94064.00;;;;7403644;19;20140;-90
2023/06/12 03:47:17;;;;;;;5.20;4.68;;;;;13.70;94063.00;;;;7405240;19;20171;-89
2023/06/12 03:49:46;;;;;;;6.70;5.32;;;;;13.60;94059.00;;;;7404262;19;20145;-89
2023/06/12 03:52:24;;;;;;;5.50;4.47;;;;;13.60;94070.00;;;;7406231;19;20162;-89
2023/06/12 03:54:52;;;;;;;6.63;4.95;;;;;13.50;94076.00;;;;7404654;19;20151;-90
2023/06/12 03:57:27;;;;;;;6.18;5.40;;;;;13.60;94080.00;;;;7403108;19;20140;-90
2023/06/12 03:59:54;;;;;;;7.68;4.93;;;;;13.60;94081.00;;;;7403894;19;20561;-89
2023/06/12 04:02:42;;;;;;;6.03;5.40;;;;;13.60;94087.00;;;;7402983;19;20187;-89
2023/06/12 04:05:21;;;;;;;6.13;4.75;;;;;13.80;94085.00;;;;7402684;19;20593;-89
2023/06/12 04:07:56;;;;;;;5.43;4.93;;;;;13.70;94088.00;;;;7401974;19;20557;-89
2023/06/12 04:10:24;;;;;;;5.90;5.25;;;;;13.70;94089.00;;;;7402436;19;20152;-89
2023/06/12 04:12:58;;;;;;;5.50;4.93;;;;;13.80;94089.00;;;;7403666;19;20144;-89
2023/06/12 04:15:28;;;;;;;5.78;4.95;;;;;13.80;94093.00;;;;7401641;19;20149;-88
2023/06/12 04:18:04;;;;;;;5.20;4.70;;;;;13.90;94093.00;;;;7404603;19;20140;-88
2023/06/12 04:20:38;;;;;;;6.07;5.20;;;;;14.10;94093.00;;;;7400629;19;20144;-89
2023/06/12 04:23:12;;;;;;;6.35;4.90;;;;;14.10;94097.00;;;;7401644;19;20627;-90
2023/06/12 04:25:42;;;;;;;5.80;4.72;;;;;14.20;94099.00;;;;7401912;19;20163;-86
2023/06/12 04:28:21;;;;;;;5.45;4.65;;;;;14.20;94095.00;;;;7401897;19;20143;-88
2023/06/12 04:30:55;;;;;;;5.32;4.82;;;;;14.30;94098.00;;;;7401191;19;20149;-89
2023/06/12 04:33:23;;;;;;;5.13;4.45;;;;;14.30;94092.00;;;;7398791;19;20259;-88
2023/06/12 04:36:01;;;;;;;5.70;4.85;;;;;14.40;94086.00;;;;7402168;19;20157;-92
2023/06/12 04:38:38;;;;;;;7.22;5.53;;;;;14.60;94097.00;;;;7408053;19;20165;-95
2023/06/12 04:41:13;;;;;;;7.78;4.70;;;;;14.80;94098.00;;;;7406687;19;20167;-94
2023/06/12 04:43:48;;;;;;;5.82;5.22;;;;;15.00;94102.00;;;;7407864;19;20144;-92
2023/06/12 04:46:22;;;;;;;5.25;4.78;;;;;15.30;94099.00;;;;7406559;19;20144;-94
2023/06/12 04:48:50;;;;;;;5.93;4.70;;;;;15.50;94098.00;;;;7405992;19;20600;-92
2023/06/12 04:51:24;;;;;;;5.30;4.72;;;;;15.60;94096.00;;;;7407033;19;20140;-92
2023/06/12 04:53:53;;;;;;;5.75;4.93;;;;;15.70;94094.00;;;;7407906;19;20154;-91
2023/06/12 04:56:32;;;;;;;5.18;4.68;;;;;15.90;94093.00;;;;7405558;19;20619;-93
2023/06/12 04:59:06;;;;;;;9.43;5.07;;;;;16.00;94090.00;;;;7403321;19;20504;-93
2023/06/12 05:01:40;;;;;;;5.22;4.72;;;;;16.00;94094.00;;;;7407358;19;20140;-91
2023/06/12 05:04:20;;;;;;;7.32;4.95;;;;;16.10;94097.00;;;;7404535;19;20171;-90
2023/06/12 05:06:56;;;;;;;6.00;4.90;;;;;16.30;94087.00;;;;7407196;19;20148;-93
2023/06/12 05:09:30;;;;;;;6.47;5.00;;;;;16.40;94089.00;;;;7404869;19;20151;-92
2023/06/12 05:12:06;;;;;;;6.32;5.05;;;;;16.60;94089.00;;;;7405678;19;20132;-92
2023/06/12 05:14:34;;;;;;;8.45;5.45;;;;;16.70;94086.00;;;;7402884;19;20152;-91
2023/06/12 05:17:08;;;;;;;5.50;4.93;;;;;16.80;94086.00;;;;7403555;19;20136;-90
2023/06/12 05:19:43;;;;;;;5.45;4.60;;;;;16.90;94087.00;;;;7408174;19;20162;-91
2023/06/12 05:22:19;;;;;;;6.10;5.28;;;;;17.10;94082.00;;;;7407008;19;20145;-92
2023/06/12 05:24:53;;;;;;;5.15;4.65;;;;;17.20;94090.00;;;;7405130;19;20156;-90
2023/06/12 05:27:21;;;;;;;5.45;4.90;;;;;17.30;94088.00;;;;7406114;19;20144;-93
2023/06/12 05:29:55;;;;;;;5.07;4.57;;;;;17.40;94090.00;;;;7406863;19;20604;-91
2023/06/12 05:32:29;;;;;;;6.82;4.90;;;;;17.60;94096.00;;;;7409560;19;20141;-92
2023/06/12 05:34:57;;;;;;;5.88;5.28;;;;;17.70;94092.00;;;;7415466;19;20174;-91
2023/06/12 05:37:31;;;;;;;5.82;4.70;;;;;17.90;94093.00;;;;7416962;19;20145;-90
2023/06/12 05:40:00;;;;;;;5.72;4.93;;;;;18.00;94096.00;;;;7415583;19;20605;-91
2023/06/12 05:42:35;;;;;;;5.50;4.72;;;;;18.10;94096.00;;;;7413067;19;20148;-91
2023/06/12 05:45:04;;;;;;;6.25;4.90;;;;;18.30;94097.00;;;;7408855;19;20149;-91
2023/06/12 05:47:38;;;;;;;4.55;4.03;;;;;18.50;94094.00;;;;7413364;19;20159;-90
2023/06/12 05:50:12;;;;;;;5.78;4.95;;;;;18.70;94089.00;;;;7413366;19;20153;-89
2023/06/12 05:52:41;;;;;;;5.68;5.07;;;;;18.80;94096.00;;;;7411527;19;20137;-90
2023/06/12 05:55:17;;;;;;;6.03;5.05;;;;;19.00;94097.00;;;;7412665;19;20143;-88
2023/06/12 05:57:51;;;;;;;6.40;5.10;;;;;19.20;94099.00;;;;7409345;19;20175;-91
2023/06/12 06:00:23;;;;;;;6.43;4.78;;;;;19.70;94100.00;;;;7411745;19;20137;-93
2023/06/12 06:03:12;;;;;;;5.28;4.68;;;;;19.90;94100.00;;;;7410083;19;20188;-91
2023/06/12 06:05:49;;;;;;;5.20;4.25;;;;;20.20;94095.00;;;;7409013;19;20179;-90
2023/06/12 06:08:23;;;;;;;5.97;4.88;;;;;20.40;94100.00;;;;7409181;19;20138;-90
2023/06/12 06:10:57;;;;;;;5.90;4.88;;;;;20.40;94106.00;;;;7407360;19;20625;-92
2023/06/12 06:13:34;;;;;;;6.32;4.35;;;;;20.50;94099.00;;;;7402882;19;20162;-89
2023/06/12 06:16:02;;;;;;;5.43;4.85;;;;;20.70;94104.00;;;;7403763;19;20500;-90
2023/06/12 06:18:38;;;;;;;6.30;4.55;;;;;21.10;94108.00;;;;7404830;19;20156;-87
2023/06/12 06:21:08;;;;;;;9.45;4.70;;;;;21.70;94099.00;;;;7403160;19;20170;-92
2023/06/12 06:23:43;;;;;;;5.05;4.55;;;;;22.00;94103.00;;;;7405379;19;20149;-91
2023/06/12 06:26:19;;;;;;;6.55;4.43;;;;;22.10;94105.00;;;;7403915;19;20157;-91
2023/06/12 06:28:56;;;;;;;4.78;4.30;;;;;22.20;94118.00;;;;7403787;19;20158;-92
2023/06/12 06:31:48;;;;;;;18.20;5.07;;;;;22.60;94114.00;;;;7401632;19;20159;-92
2023/06/12 06:34:24;;;;;;;5.50;4.82;;;;;23.20;94112.00;;;;7402831;19;20224;-90
2023/06/12 06:36:52;;;;;;;5.80;5.20;;;;;23.30;94108.00;;;;7400931;19;20621;-91
2023/06/12 06:39:27;;;;;;;6.35;4.72;;;;;23.00;94118.00;;;;7401497;19;20156;-88
2023/06/12 06:41:55;;;;;;;6.32;4.60;;;;;23.30;94118.00;;;;7402071;19;20303;-91
2023/06/12 06:44:22;;;;;;;6.47;4.95;;;;;23.70;94114.00;;;;7399352;19;20156;-91
2023/06/12 06:46:56;;;;;;;5.50;5.00;;;;;23.50;94121.00;;;;7401570;19;20149;-88
2023/06/12 06:49:30;;;;;;;7.30;4.88;;;;;23.60;94119.00;;;;7400927;19;20137;-92
2023/06/12 06:52:01;;;;;;;7.00;4.95;;;;;23.40;94121.00;;;;7401703;19;20129;-90
2023/06/12 06:54:35;;;;;;;4.80;4.32;;;;;23.00;94125.00;;;;7402506;19;20136;-90
2023/06/12 06:57:06;;;;;;;5.97;5.32;;;;;23.00;94126.00;;;;7398382;19;20156;-89
2023/06/12 06:59:40;;;;;;;6.97;5.10;;;;;23.10;94130.00;;;;7399985;19;20164;-88
2023/06/12 07:02:20;;;;;;;6.85;4.95;;;;;22.50;94127.00;;;;7396886;19;20845;-89
2023/06/12 07:05:01;;;;;;;6.63;4.82;;;;;22.20;94128.00;;;;7399345;19;20149;-90
2023/06/12 07:07:33;;;;;;;6.63;5.55;;;;;22.30;94136.00;;;;7398336;19;20125;-88
2023/06/12 07:10:30;;;;;;;5.50;4.53;;;;;22.00;94118.00;;;;7400039;19;20145;-89
2023/06/12 07:12:58;;;;;;;8.25;5.57;;;;;21.90;94121.00;;;;7400965;19;20156;-88
2023/06/12 07:15:33;;;;;;;6.40;4.60;;;;;21.60;94126.00;;;;7399744;19;20599;-90
2023/06/12 07:18:01;;;;;;;6.35;5.05;;;;;21.40;94123.00;;;;7397024;19;20174;-89
2023/06/12 07:20:35;;;;;;;7.57;5.32;;;;;22.10;94128.00;;;;7399731;19;20171;-91
2023/06/12 07:23:06;;;;;;;8.38;5.32;;;;;21.80;94128.00;;;;7399530;19;20154;-90
2023/06/12 07:25:40;;;;;;;7.13;5.32;;;;;21.80;94122.00;;;;7393952;19;20152;-90
2023/06/12 07:28:07;;;;;;;6.53;5.20;;;;;22.10;94115.00;;;;7397590;19;20132;-88
2023/06/12 07:30:42;;;;;;;6.97;5.60;;;;;22.60;94119.00;;;;7398315;19;20147;-89
2023/06/12 07:33:10;;;;;;;6.22;4.80;;;;;22.20;94119.00;;;;7398793;19;20148;-87
2023/06/12 07:35:45;;;;;;;6.65;5.00;;;;;22.60;94120.00;;;;7397420;19;20174;-89
2023/06/12 07:38:13;;;;;;;7.55;4.78;;;;;22.70;94115.00;;;;7396114;19;20633;-90
2023/06/12 07:40:53;;;;;;;6.43;5.38;;;;;22.70;94119.00;;;;7397083;19;20140;-89
2023/06/12 07:43:23;;;;;;;8.80;5.15;;;;;23.10;94116.00;;;;7394351;19;20155;-90
2023/06/12 07:46:00;;;;;;;7.35;4.97;;;;;22.80;94117.00;;;;7397651;19;20425;-89
2023/06/12 07:48:36;;;;;;;6.07;5.47;;;;;22.90;94113.00;;;;7395013;19;20608;-87
2023/06/12 07:51:11;;;;;;;9.00;5.35;;;;;23.30;94112.00;;;;7398039;19;20223;-87
2023/06/12 07:53:42;;;;;;;9.63;5.35;;;;;23.60;94115.00;;;;7398873;19;20176;-87
2023/06/12 07:56:17;;;;;;;7.03;5.13;;;;;23.60;94112.00;;;;7395936;19;20626;-89
2023/06/12 07:58:46;;;;;;;8.48;4.93;;;;;23.20;94108.00;;;;7403399;19;20156;-91
2023/06/12 08:01:22;;;;;;;5.88;5.28;;;;;23.30;94108.00;;;;7396013;19;20158;-89
2023/06/12 08:04:03;;;;;;;7.78;4.70;;;;;23.60;94102.00;;;;7397163;19;20183;-90
2023/06/12 08:06:33;;;;;;;7.97;5.43;;;;;23.70;94108.00;;;;7397535;19;20145;-93
2023/06/12 08:09:11;;;;;;;7.05;4.60;;;;;23.70;94103.00;;;;7406484;19;20182;-92
2023/06/12 08:11:49;;;;;;;5.47;4.97;;;;;23.60;94118.00;;;;7408868;19;20153;-93
2023/06/12 08:14:17;;;;;;;8.20;4.88;;;;;23.50;94108.00;;;;7403007;19;20144;-94
2023/06/12 08:16:52;;;;;;;7.68;5.00;;;;;23.90;94107.00;;;;7403408;19;20144;-93
2023/06/12 08:19:36;;;;;;;5.88;5.28;;;;;24.20;94102.00;;;;7396433;19;20218;-93
2023/06/12 08:22:14;;;;;;;7.25;5.28;;;;;23.90;94135.00;;;;7400210;19;20170;-94
2023/06/12 08:24:46;;;;;;;5.35;4.63;;;;;23.70;94104.00;;;;7405967;19;20149;-93
2023/06/12 08:27:20;;;;;;;7.18;5.47;;;;;23.90;94106.00;;;;7400671;19;20182;-92
2023/06/12 08:29:48;;;;;;;5.45;4.90;;;;;24.30;94096.00;;;;7402905;19;20155;-90
2023/06/12 08:32:17;;;;;;;7.40;5.28;;;;;23.90;94102.00;;;;7401738;19;20149;-91
2023/06/12 08:34:53;;;;;;;10.45;5.25;;;;;24.70;94092.00;;;;7399016;19;20580;-93
2023/06/12 08:37:21;;;;;;;9.10;5.20;;;;;24.60;94099.00;;;;7400141;19;20159;-92
2023/06/12 08:39:58;;;;;;;10.75;5.07;;;;;24.20;94093.00;;;;7400883;19;20162;-93
2023/06/12 08:42:26;;;;;;;6.85;4.57;;;;;24.50;94106.00;;;;7406921;19;20174;-92
2023/06/12 08:45:06;;;;;;;5.90;4.65;;;;;24.40;94096.00;;;;7397962;19;20147;-92
2023/06/12 08:47:51;;;;;;;6.47;4.53;;;;;25.10;94100.00;;;;7402580;19;20141;-94
2023/06/12 08:50:28;;;;;;;7.13;4.53;;;;;25.10;94096.00;;;;7404508;19;20149;-94
2023/06/12 08:53:01;;;;;;;6.38;4.75;;;;;24.90;94093.00;;;;7403797;19;20157;-90
2023/06/12 08:55:44;;;;;;;5.97;4.78;;;;;24.80;94099.00;;;;7400184;19;20159;-90
2023/06/12 08:58:18;;;;;;;5.70;5.20;;;;;25.20;94085.00;;;;7402086;19;20149;-87
2023/06/12 09:00:53;;;;;;;5.40;4.90;;;;;25.80;94085.00;;;;7394866;19;20152;-88
2023/06/12 09:03:36;;;;;;;6.63;4.35;;;;;25.70;94086.00;;;;7395754;19;20191;-88
2023/06/12 09:06:07;;;;;;;6.57;4.65;;;;;26.20;94089.00;;;;7395640;19;20592;-86
2023/06/12 09:08:41;;;;;;;7.25;4.63;;;;;26.40;94088.00;;;;7397363;19;20671;-91
2023/06/12 09:11:19;;;;;;;5.82;4.53;;;;;25.90;94075.00;;;;7406534;19;20136;-88
2023/06/12 09:14:02;;;;;;;6.75;4.38;;;;;25.70;94079.00;;;;7402012;19;20160;-90
2023/06/12 09:16:31;;;;;;;8.48;4.82;;;;;25.80;94076.00;;;;7406581;19;20752;-90
2023/06/12 09:19:07;;;;;;;5.35;4.72;;;;;25.80;94077.00;;;;7408979;19;20152;-89
2023/06/12 09:21:47;;;;;;;6.13;4.18;;;;;26.10;94087.00;;;;7414117;19;20199;-87
2023/06/12 09:24:23;;;;;;;5.75;4.50;;;;;25.70;94072.00;;;;7399803;19;20125;-86
2023/06/12 09:26:57;;;;;;;7.13;4.90;;;;;26.20;94075.00;;;;7398784;19;20577;-89
2023/06/12 09:29:38;;;;;;;7.97;5.15;;;;;26.70;94107.00;;;;7407750;19;20137;-92
2023/06/12 09:32:20;;;;;;;5.20;4.70;;;;;26.70;94084.00;;;;7405131;19;20141;-90
2023/06/12 09:35:04;;;;;;;5.95;4.90;;;;;26.20;94078.00;;;;7411103;19;20287;-91
2023/06/12 09:37:32;;;;;;;5.05;4.63;;;;;26.20;94082.00;;;;7406703;19;20157;-89
2023/06/12 09:40:15;;;;;;;8.23;5.15;;;;;25.90;94083.00;;;;7405654;19;20152;-90
2023/06/12 09:42:45;;;;;;;5.55;5.00;;;;;26.00;94085.00;;;;7406339;19;20159;-89
2023/06/12 09:45:23;;;;;;;6.68;4.93;;;;;25.70;94079.00;;;;7403702;19;20161;-88
2023/06/12 09:47:55;;;;;;;6.53;5.30;;;;;26.00;94077.00;;;;7405434;19;20160;-90
2023/06/12 09:50:45;;;;;;;10.73;5.68;;;;;26.80;94120.00;;;;7398515;19;20664;-77
2023/06/12 09:53:29;;;;;;;12.20;5.07;;;;;26.30;94115.00;;;;7385806;19;20505;-76
2023/06/12 09:56:05;;;;;;;5.70;5.03;;;;;26.20;94078.00;;;;7386024;19;20137;-76
2023/06/12 09:58:46;;;;;;;5.13;4.57;;;;;26.80;94086.00;;;;7386839;19;20150;-75
2023/06/12 10:01:21;;;;;;;5.88;5.18;;;;;27.20;94073.00;;;;7386874;19;20498;-75
2023/06/12 10:03:56;;;;;;;10.23;4.63;;;;;27.80;94078.00;;;;7385612;19;20177;-75
2023/06/12 10:06:35;;;;;;;4.90;4.50;;;;;27.80;94076.00;;;;7383996;19;20140;-76
2023/06/12 10:09:03;;;;;;;4.88;4.47;;;;;28.00;94069.00;;;;7386381;19;20751;-76
2023/06/12 10:11:38;;;;;;;7.35;4.53;;;;;28.70;94077.00;;;;7383621;19;20132;-78
2023/06/12 10:14:13;;;;;;;5.10;4.60;;;;;28.80;94077.00;;;;7387280;19;20205;-76
2023/06/12 10:16:49;;;;;;;8.35;4.93;;;;;28.90;94067.00;;;;7384094;19;20506;-78
2023/06/12 10:19:25;;;;;;;5.63;5.13;;;;;28.80;94070.00;;;;7382423;19;20165;-76
2023/06/12 10:21:57;;;;;;;5.88;4.97;;;;;29.60;94058.00;;;;7385639;19;20163;-75
2023/06/12 10:24:32;;;;;;;6.57;5.50;;;;;29.70;94055.00;;;;7385339;19;20223;-76
2023/06/12 10:27:00;;;;;;;6.38;5.15;;;;;30.00;94071.00;;;;7386034;19;20624;-80
2023/06/12 10:29:38;;;;;;;6.03;5.00;;;;;29.60;94065.00;;;;7386460;19;20226;-79
2023/06/12 10:32:15;;;;;;;7.05;5.15;;;;;29.00;94071.00;;;;7385572;19;20547;-76
2023/06/12 10:34:54;;;;;;;6.88;4.80;;;;;30.20;94059.00;;;;7385366;19;20159;-78
2023/06/12 10:37:27;;;;;;;5.95;5.22;;;;;30.10;94058.00;;;;7383579;19;20158;-77
2023/06/12 10:40:10;;;;;;;5.35;4.85;;;;;29.70;94059.00;;;;7386180;19;20132;-83
2023/06/12 10:42:40;;;;;;;5.30;4.90;;;;;30.10;94048.00;;;;7385969;19;20132;-78
2023/06/12 10:45:26;;;;;;;5.40;4.88;;;;;29.70;94059.00;;;;7385665;19;20207;-77
2023/06/12 10:48:02;;;;;;;5.32;4.72;;;;;29.30;94055.00;;;;7385834;19;20204;-78
2023/06/12 10:51:00;;;;;;;6.78;4.80;;;;;29.80;94052.00;;;;7383454;19;20179;-77
2023/06/12 10:53:34;;;;;;;6.80;5.22;;;;;29.00;94082.00;;;;7383307;19;20140;-77
2023/06/12 10:56:08;;;;;;;5.57;5.10;;;;;28.20;94050.00;;;;7385185;19;20618;-77
2023/06/12 10:58:41;;;;;;;7.78;5.40;;;;;29.10;94042.00;;;;7384213;19;20474;-77
2023/06/12 11:01:15;;;;;;;5.22;4.82;;;;;29.40;94033.00;;;;7384186;19;20188;-77
2023/06/12 11:03:43;;;;;;;7.63;5.55;;;;;30.20;94031.00;;;;7383813;19;20183;-76
2023/06/12 11:06:25;;;;;;;4.90;4.40;;;;;30.20;94036.00;;;;7383687;19;20466;-77
2023/06/12 11:08:52;;;;;;;5.80;5.13;;;;;29.60;94043.00;;;;7383675;19;20470;-75
2023/06/12 11:11:26;;;;;;;5.20;4.80;;;;;29.40;94042.00;;;;7387465;19;20128;-81
2023/06/12 11:14:01;;;;;;;5.07;4.68;;;;;28.90;94052.00;;;;7383823;19;20132;-83
2023/06/12 11:16:40;;;;;;;4.88;4.47;;;;;29.20;94034.00;;;;7383278;19;20151;-77
2023/06/12 11:19:08;;;;;;;5.00;4.50;;;;;29.10;94041.00;;;;7383453;19;20612;-77
2023/06/12 11:21:44;;;;;;;5.28;4.47;;;;;29.60;94039.00;;;;7385957;19;20145;-79
2023/06/12 11:24:12;;;;;;;5.97;4.95;;;;;29.90;94039.00;;;;7383622;19;20129;-76
2023/06/12 11:26:50;;;;;;;7.25;4.90;;;;;29.90;94042.00;;;;7382566;19;20155;-76
2023/06/12 11:29:25;;;;;;;5.93;4.97;;;;;29.40;94034.00;;;;7383399;19;20596;-75
2023/06/12 11:32:04;;;;;;;6.13;4.70;;;;;30.00;94033.00;;;;7382450;19;20474;-76
2023/06/12 11:34:34;;;;;;;5.40;4.90;;;;;30.10;94030.00;;;;7382268;19;20148;-76
2023/06/12 11:37:16;;;;;;;5.57;5.07;;;;;29.90;94035.00;;;;7383423;19;20159;-74
2023/06/12 11:40:08;;;;;;;5.85;5.18;;;;;29.90;94028.00;;;;7382792;19;20243;-75
2023/06/12 11:42:45;;;;;;;5.95;5.20;;;;;29.50;94080.00;;;;7382346;19;20608;-75
2023/06/12 11:45:14;;;;;;;9.23;5.18;;;;;28.50;94026.00;;;;7382945;19;20148;-75
2023/06/12 11:47:49;;;;;;;6.57;4.80;;;;;29.90;94016.00;;;;7382656;19;20152;-74
2023/06/12 11:50:20;;;;;;;5.95;4.82;;;;;29.60;94023.00;;;;7380555;19;20180;-77
2023/06/12 11:53:02;;;;;;;6.28;4.63;;;;;30.00;94027.00;;;;7381956;19;20166;-78
2023/06/12 11:55:36;;;;;;;8.05;4.88;;;;;29.70;94016.00;;;;7384807;19;20149;-78
2023/06/12 11:58:13;;;;;;;9.88;4.72;;;;;29.40;94011.00;;;;7384384;19;20155;-76
2023/06/12 12:00:45;;;;;;;5.07;4.68;;;;;29.60;94009.00;;;;7381152;19;20170;-75
2023/06/12 12:03:23;;;;;;;5.13;4.63;;;;;30.50;94006.00;;;;7381621;19;20215;-77
2023/06/12 12:05:57;;;;;;;10.95;4.63;;;;;30.40;94009.00;;;;7382762;19;20136;-76
2023/06/12 12:08:25;;;;;;;5.57;5.07;;;;;30.70;94006.00;;;;7382535;19;20623;-76
2023/06/12 12:11:16;;;;;;;6.30;5.00;;;;;30.20;93992.00;;;;7384093;19;20137;-77
2023/06/12 12:14:08;;;;;;;5.35;4.82;;;;;30.00;94010.00;;;;7382044;19;20140;-77
2023/06/12 12:16:44;;;;;;;5.60;5.03;;;;;30.40;94005.00;;;;7381996;19;20578;-77
2023/06/12 12:19:26;;;;;;;5.50;4.80;;;;;30.30;94010.00;;;;7382000;19;20162;-75
2023/06/12 12:22:01;;;;;;;5.88;5.10;;;;;31.20;93994.00;;;;7381995;19;20120;-74
2023/06/12 12:24:43;;;;;;;7.90;5.25;;;;;30.70;94000.00;;;;7383455;19;20131;-76
2023/06/12 12:27:18;;;;;;;6.53;4.97;;;;;30.10;94001.00;;;;7383439;19;21688;-75
2023/06/12 12:29:52;;;;;;;5.25;4.75;;;;;30.20;93999.00;;;;7380911;19;20296;-76
2023/06/12 12:32:27;;;;;;;5.43;5.00;;;;;30.20;93999.00;;;;7381246;19;20207;-76
2023/06/12 12:34:55;;;;;;;4.90;4.32;;;;;30.90;93994.00;;;;7382828;19;20609;-75
2023/06/12 12:37:30;;;;;;;5.90;5.30;;;;;30.80;94005.00;;;;7380735;19;20147;-74
2023/06/12 12:39:57;;;;;;;5.35;4.85;;;;;29.90;94006.00;;;;7379562;19;20216;-75
2023/06/12 12:42:30;;;;;;;8.45;5.45;;;;;30.10;93993.00;;;;7382791;19;20128;-75
2023/06/12 12:45:06;;;;;;;5.45;4.95;;;;;29.70;94003.00;;;;7387425;19;20155;-77
2023/06/12 12:47:41;;;;;;;5.57;5.07;;;;;29.70;93991.00;;;;7387137;19;20630;-77
2023/06/12 12:50:30;;;;;;;8.43;5.00;;;;;29.60;93988.00;;;;7386673;19;20765;-77
2023/06/12 12:53:01;;;;;;;7.57;4.78;;;;;29.70;93985.00;;;;7386805;19;20148;-76
2023/06/12 12:55:35;;;;;;;6.90;5.32;;;;;29.80;93971.00;;;;7389484;19;20136;-80